Time;durP1;ratioP1;P1;durP2;ratioP2;P2;SDS_P1;SDS_P2;PMS_P1;PMS_P2;Temp;Humidity;BMP_temperature;BMP_pressure;BME280_temperature;BME280_humidity;BME280_pressure;Samples;Min_cycle;Max_cycle;Signal;HPM_P1;HPM_P2
2023/11/01 00:01:36;;;;;;;25.80;12.70;;;;;;;23.87;58.00;101049.14;110762;1253;23050;-64
2023/11/01 00:04:03;;;;;;;20.70;12.80;;;;;;;23.88;58.05;101047.29;110776;1250;22262;-62
2023/11/01 00:06:30;;;;;;;24.40;13.80;;;;;;;23.90;57.98;101043.02;110458;1253;22277;-61
2023/11/01 00:09:00;;;;;;;31.40;15.20;;;;;;;23.91;57.96;101037.46;110689;1264;22143;-59
2023/11/01 00:11:27;;;;;;;24.30;13.30;;;;;;;23.91;57.75;101034.98;110809;1254;23036;-62
2023/11/01 00:13:54;;;;;;;25.20;14.10;;;;;;;23.91;57.74;101031.42;110747;1253;22962;-61
2023/11/01 00:16:20;;;;;;;24.60;14.40;;;;;;;23.92;57.66;101026.25;110814;1249;22096;-60
2023/11/01 00:18:47;;;;;;;33.30;14.40;;;;;;;23.92;57.81;101019.83;110836;1250;22379;-62
2023/11/01 00:21:14;;;;;;;22.10;14.20;;;;;;;23.93;57.69;101015.15;110811;1249;22881;-63
2023/11/01 00:23:41;;;;;;;27.40;14.40;;;;;;;23.94;57.79;101010.13;110594;1262;22799;-61
2023/11/01 00:26:08;;;;;;;27.00;14.60;;;;;;;23.94;57.54;101000.42;110775;1253;22138;-59
2023/11/01 00:28:35;;;;;;;25.30;14.30;;;;;;;23.93;57.44;100992.49;110779;1262;22389;-59
2023/11/01 00:31:02;;;;;;;25.50;13.50;;;;;;;23.93;57.46;100989.30;110783;1253;22195;-62
2023/11/01 00:33:29;;;;;;;26.10;14.00;;;;;;;23.93;57.48;100993.88;110762;1261;23225;-61
2023/11/01 00:35:56;;;;;;;24.60;14.30;;;;;;;23.95;57.70;100993.41;110568;1263;22338;-59
2023/11/01 00:38:23;;;;;;;32.20;15.70;;;;;;;23.95;57.92;100987.00;110777;1251;22412;-59
2023/11/01 00:40:50;;;;;;;27.40;14.00;;;;;;;23.96;57.83;100980.05;110773;1262;22457;-66
2023/11/01 00:43:17;;;;;;;27.30;15.50;;;;;;;23.96;57.82;100983.04;110731;1254;22394;-62
2023/11/01 00:45:44;;;;;;;32.00;15.90;;;;;;;23.96;57.96;100981.27;110771;1249;22862;-60
2023/11/01 00:48:10;;;;;;;31.00;15.40;;;;;;;23.96;57.79;100980.06;110754;1253;22357;-65
2023/11/01 00:50:37;;;;;;;21.50;15.60;;;;;;;23.95;57.93;100984.34;110459;1262;22389;-67
2023/11/01 00:53:04;;;;;;;27.00;15.50;;;;;;;23.95;57.76;100982.42;110749;1259;22363;-59
2023/11/01 00:55:31;;;;;;;27.20;16.10;;;;;;;23.95;57.99;100984.71;110582;1256;22160;-59
2023/11/01 00:57:57;;;;;;;30.10;16.80;;;;;;;23.94;57.81;100989.55;110609;1253;22085;-59
2023/11/01 01:00:24;;;;;;;28.70;16.30;;;;;;;23.94;58.00;100987.98;110771;1256;22387;-59
2023/11/01 01:02:52;;;;;;;28.70;16.10;;;;;;;23.95;57.93;100981.58;110435;1273;22497;-59
2023/11/01 01:05:20;;;;;;;27.90;16.10;;;;;;;23.94;58.02;100982.84;110360;1256;22332;-59
2023/11/01 01:07:46;;;;;;;27.90;17.00;;;;;;;23.93;57.91;100981.84;110797;1258;22470;-62
2023/11/01 01:10:13;;;;;;;25.80;16.30;;;;;;;23.92;57.71;100982.10;110554;1255;22291;-60
2023/11/01 01:12:40;;;;;;;22.60;14.50;;;;;;;23.91;57.63;100978.45;110756;1261;22096;-60
2023/11/01 01:15:07;;;;;;;29.20;16.60;;;;;;;23.91;57.80;100975.61;110761;1253;22362;-62
2023/11/01 01:17:34;;;;;;;30.20;16.60;;;;;;;23.91;57.79;100979.67;110816;1262;22311;-59
2023/11/01 01:20:01;;;;;;;26.90;17.80;;;;;;;23.92;57.82;100987.46;110773;1250;23167;-60
2023/11/01 01:22:28;;;;;;;32.80;17.00;;;;;;;23.92;58.05;100982.46;110757;1258;23240;-60
2023/11/01 01:24:55;;;;;;;29.30;18.00;;;;;;;23.93;57.84;100981.31;110754;1254;22161;-59
2023/11/01 01:27:21;;;;;;;30.50;18.00;;;;;;;23.95;58.21;100972.52;110284;1271;23055;-64
2023/11/01 01:29:48;;;;;;;32.90;18.60;;;;;;;23.95;58.13;100971.41;110565;1257;23052;-60
2023/11/01 01:32:15;;;;;;;34.40;18.90;;;;;;;23.95;58.30;100966.63;110770;1260;23117;-61
2023/11/01 01:34:42;;;;;;;30.10;18.90;;;;;;;23.96;58.28;100959.64;110582;1263;22186;-63
2023/11/01 01:37:08;;;;;;;24.50;17.00;;;;;;;23.98;58.25;100952.82;110747;1261;22454;-62
2023/11/01 01:39:35;;;;;;;27.90;17.00;;;;;;;23.97;58.48;100952.89;110521;1257;22995;-60
2023/11/01 01:42:02;;;;;;;33.80;17.70;;;;;;;23.98;58.49;100950.13;110814;1262;22389;-63
2023/11/01 01:44:29;;;;;;;31.80;17.20;;;;;;;23.97;58.43;100946.30;110732;1253;23186;-61
2023/11/01 01:46:56;;;;;;;28.50;18.80;;;;;;;23.97;58.53;100945.22;110791;1253;22315;-60
2023/11/01 01:49:23;;;;;;;31.90;18.20;;;;;;;23.99;58.57;100940.86;110622;1256;22342;-60
2023/11/01 01:51:59;;;;;;;27.10;18.70;;;;;;;23.99;58.68;100935.71;110642;1264;22340;-63
2023/11/01 01:54:26;;;;;;;28.20;19.20;;;;;;;23.99;58.86;100931.41;110788;1261;22417;-61
2023/11/01 01:56:53;;;;;;;33.50;19.20;;;;;;;24.00;58.89;100928.55;110600;1256;22921;-67
2023/11/01 01:59:20;;;;;;;29.50;20.30;;;;;;;24.00;59.00;100921.29;110394;1258;22425;-60
2023/11/01 02:01:47;;;;;;;31.20;19.50;;;;;;;24.01;58.94;100917.46;110584;1263;22423;-62
2023/11/01 02:04:14;;;;;;;36.30;20.30;;;;;;;24.02;59.05;100914.58;110400;1256;22426;-58
2023/11/01 02:06:40;;;;;;;33.70;19.90;;;;;;;24.02;59.15;100915.61;110826;1251;22911;-59
2023/11/01 02:09:15;;;;;;;30.00;20.00;;;;;;;24.03;59.05;100912.34;110386;1268;22464;-58
2023/11/01 02:11:45;;;;;;;30.50;20.60;;;;;;;24.04;59.19;100912.66;110611;1255;22218;-62
2023/11/01 02:14:12;;;;;;;35.40;21.40;;;;;;;24.04;59.19;100911.22;110612;1256;22474;-63
2023/11/01 02:16:39;;;;;;;28.90;19.80;;;;;;;24.05;59.28;100909.41;110747;1254;22423;-59
2023/11/01 02:19:08;;;;;;;39.70;22.30;;;;;;;24.05;59.08;100910.06;110753;1253;22113;-59
2023/11/01 02:21:36;;;;;;;27.20;20.50;;;;;;;24.07;59.14;100908.17;110625;1256;22364;-59
2023/11/01 02:24:03;;;;;;;39.50;22.30;;;;;;;24.08;59.34;100908.11;110619;1262;22389;-60
2023/11/01 02:26:30;;;;;;;32.40;21.40;;;;;;;24.09;59.22;100910.33;110800;1253;23125;-59
2023/11/01 02:28:57;;;;;;;35.90;21.70;;;;;;;24.10;59.24;100906.84;110773;1261;22154;-62
2023/11/01 02:31:23;;;;;;;36.20;21.40;;;;;;;24.11;59.37;100912.67;110755;1250;23173;-61
2023/11/01 02:33:50;;;;;;;29.90;20.90;;;;;;;24.11;59.41;100914.39;110304;1272;22361;-60
2023/11/01 02:36:17;;;;;;;33.10;23.10;;;;;;;24.12;59.52;100914.17;110352;1264;22132;-59
2023/11/01 02:38:44;;;;;;;32.20;22.80;;;;;;;24.12;59.41;100916.11;110740;1254;22271;-59
2023/11/01 02:41:13;;;;;;;43.90;24.90;;;;;;;24.13;59.61;100916.91;110767;1253;22145;-60
2023/11/01 02:43:40;;;;;;;35.70;23.60;;;;;;;24.13;59.66;100925.23;110751;1262;22354;-60
2023/11/01 02:46:07;;;;;;;33.30;23.40;;;;;;;24.14;59.66;100928.92;110389;1255;22388;-60
2023/11/01 02:48:34;;;;;;;36.50;24.10;;;;;;;24.16;59.73;100930.89;110520;1256;293634;-64
2023/11/01 02:51:01;;;;;;;38.00;25.70;;;;;;;24.17;59.80;100928.15;110773;1253;22164;-60
2023/11/01 02:53:28;;;;;;;38.60;24.10;;;;;;;24.17;59.75;100925.89;110751;1262;22294;-59
2023/11/01 02:55:54;;;;;;;42.90;26.20;;;;;;;24.17;59.81;100923.70;110710;1262;23270;-59
2023/11/01 02:58:23;;;;;;;41.80;25.40;;;;;;;24.16;59.92;100921.82;110585;1258;23268;-63
2023/11/01 03:00:50;;;;;;;35.10;24.90;;;;;;;24.17;59.92;100920.53;110755;1253;22387;-61
2023/11/01 03:03:17;;;;;;;41.90;25.80;;;;;;;24.18;59.89;100917.81;110709;1261;22326;-63
2023/11/01 03:05:44;;;;;;;41.20;25.40;;;;;;;24.19;59.91;100919.80;110768;1253;22421;-60
2023/11/01 03:08:10;;;;;;;37.10;25.60;;;;;;;24.19;60.03;100919.63;110554;1261;22307;-62
2023/11/01 03:10:37;;;;;;;36.20;24.40;;;;;;;24.19;60.22;100921.78;110529;1257;23201;-60
2023/11/01 03:13:04;;;;;;;36.10;25.70;;;;;;;24.20;60.09;100923.29;110762;1253;22445;-60
2023/11/01 03:15:31;;;;;;;49.90;27.40;;;;;;;24.17;60.18;100915.88;110795;1253;22128;-59
2023/11/01 03:17:58;;;;;;;40.40;25.40;;;;;;;24.17;60.24;100913.58;109942;1268;1002175;-59
2023/11/01 03:20:25;;;;;;;42.70;25.70;;;;;;;24.17;60.22;100908.98;110559;1258;22651;-62
2023/11/01 03:22:51;;;;;;;43.20;26.20;;;;;;;24.17;60.39;100905.98;110766;1253;22377;-62
2023/11/01 03:25:18;;;;;;;41.00;25.60;;;;;;;24.17;60.41;100903.02;110763;1254;22412;-60
2023/11/01 03:27:45;;;;;;;35.70;24.50;;;;;;;24.16;60.32;100906.20;110371;1257;22140;-60
2023/11/01 03:30:12;;;;;;;37.70;25.70;;;;;;;24.17;60.23;100908.46;110749;1253;22389;-63
2023/11/01 03:32:39;;;;;;;37.90;26.10;;;;;;;24.16;60.28;100907.12;110722;1256;22190;-64
2023/11/01 03:35:06;;;;;;;39.60;26.70;;;;;;;24.16;60.39;100907.31;110764;1253;22421;-60
2023/11/01 03:37:33;;;;;;;39.70;25.70;;;;;;;24.17;60.34;100898.38;110480;1259;22199;-61
2023/11/01 03:40:00;;;;;;;36.80;26.30;;;;;;;24.17;60.32;100897.45;110546;1256;23089;-63
2023/11/01 03:42:27;;;;;;;37.50;25.40;;;;;;;24.17;60.22;100895.89;110773;1256;23121;-62
2023/11/01 03:44:54;;;;;;;40.40;25.90;;;;;;;24.17;60.30;100885.77;110756;1250;23021;-60
2023/11/01 03:47:21;;;;;;;39.70;25.40;;;;;;;24.17;60.18;100880.98;110788;1253;22462;-61
2023/11/01 03:49:48;;;;;;;39.80;25.30;;;;;;;24.16;60.14;100874.83;110639;1259;22146;-62
2023/11/01 03:52:15;;;;;;;35.30;25.80;;;;;;;24.16;60.22;100878.96;110667;1256;22315;-60
2023/11/01 03:54:41;;;;;;;40.70;26.30;;;;;;;24.16;60.23;100873.12;110753;1256;22407;-65
2023/11/01 03:57:09;;;;;;;35.60;25.40;;;;;;;24.14;60.35;100873.42;110330;1265;22434;-59
2023/11/01 03:59:36;;;;;;;41.80;26.20;;;;;;;24.13;60.28;100860.02;110752;1250;22426;-61
2023/11/01 04:02:03;;;;;;;37.80;25.70;;;;;;;24.13;60.27;100856.14;110725;1253;22322;-66
2023/11/01 04:04:30;;;;;;;44.30;26.70;;;;;;;24.12;60.37;100850.67;110782;1255;23152;-64
2023/11/01 04:06:57;;;;;;;35.10;26.20;;;;;;;24.13;60.46;100837.02;110727;1252;22174;-63
2023/11/01 04:09:24;;;;;;;32.30;24.70;;;;;;;24.12;60.51;100829.44;110770;1256;22438;-59
2023/11/01 04:11:51;;;;;;;39.40;26.80;;;;;;;24.13;60.37;100823.91;110786;1262;22369;-60
2023/11/01 04:14:18;;;;;;;43.20;26.30;;;;;;;24.12;60.38;100824.98;110339;1268;23185;-63
2023/11/01 04:16:45;;;;;;;37.50;26.30;;;;;;;24.12;60.37;100832.45;110756;1260;22349;-62
2023/11/01 04:19:12;;;;;;;44.50;27.40;;;;;;;24.12;60.30;100833.71;110770;1263;22144;-62
2023/11/01 04:21:39;;;;;;;42.90;27.90;;;;;;;24.11;60.34;100835.15;110711;1253;22651;-66
2023/11/01 04:24:09;;;;;;;38.30;27.70;;;;;;;24.11;60.39;100839.99;110712;1253;22872;-60
2023/11/01 04:26:36;;;;;;;38.60;26.20;;;;;;;24.10;60.44;100841.48;110597;1260;22232;-61
2023/11/01 04:29:04;;;;;;;39.60;26.00;;;;;;;24.10;60.39;100831.04;110788;1262;23145;-60
2023/11/01 04:31:31;;;;;;;38.90;26.50;;;;;;;24.10;60.47;100835.48;110750;1255;22301;-61
2023/11/01 04:33:57;;;;;;;43.00;28.90;;;;;;;24.09;60.34;100841.39;110344;1258;23893;-60
2023/11/01 04:36:24;;;;;;;47.60;28.30;;;;;;;24.08;60.47;100839.52;110701;1254;22176;-60
2023/11/01 04:38:55;;;;;;;38.70;26.70;;;;;;;24.08;60.39;100845.19;110742;1254;22179;-65
2023/11/01 04:41:23;;;;;;;36.00;26.00;;;;;;;24.07;60.35;100860.13;110154;1273;22282;-67
2023/11/01 04:43:50;;;;;;;46.10;27.70;;;;;;;24.07;60.50;100862.40;110756;1253;22567;-62
2023/11/01 04:46:17;;;;;;;37.20;26.40;;;;;;;24.08;60.48;100863.27;110739;1251;22161;-63
2023/11/01 04:48:43;;;;;;;40.20;26.60;;;;;;;24.07;60.22;100862.63;110754;1256;23069;-60
2023/11/01 04:51:11;;;;;;;33.00;25.70;;;;;;;24.06;60.34;100863.77;110750;1255;22132;-61
2023/11/01 04:53:39;;;;;;;36.40;25.30;;;;;;;24.05;60.38;100872.35;110461;1259;23256;-65
2023/11/01 04:56:06;;;;;;;36.10;25.10;;;;;;;24.05;60.41;100872.36;110777;1264;23202;-60
2023/11/01 04:58:35;;;;;;;36.80;26.50;;;;;;;24.04;60.44;100875.98;110586;1272;22410;-59
2023/11/01 05:01:04;;;;;;;40.10;25.60;;;;;;;24.04;60.39;100876.17;110804;1254;22178;-65
2023/11/01 05:03:32;;;;;;;33.70;25.20;;;;;;;24.04;60.37;100877.59;110736;1261;23170;-63
2023/11/01 05:05:59;;;;;;;37.80;25.40;;;;;;;24.04;60.35;100867.10;110708;1257;23185;-65
2023/11/01 05:08:25;;;;;;;40.30;26.10;;;;;;;24.05;60.43;100870.92;110615;1255;22407;-62
2023/11/01 05:10:52;;;;;;;32.30;25.90;;;;;;;24.05;60.42;100876.92;110372;1258;22196;-63
2023/11/01 05:13:19;;;;;;;38.50;25.60;;;;;;;24.07;60.54;100881.73;110733;1253;22405;-62
2023/11/01 05:15:46;;;;;;;35.30;24.70;;;;;;;24.09;60.61;100883.37;110755;1256;22873;-61
2023/11/01 05:18:12;;;;;;;38.50;25.80;;;;;;;24.10;60.53;100885.79;110798;1253;22629;-59
2023/11/01 05:20:39;;;;;;;40.00;27.00;;;;;;;24.12;60.51;100886.15;110359;1258;22193;-59
2023/11/01 05:23:07;;;;;;;43.40;25.90;;;;;;;24.14;60.49;100886.73;110760;1253;22256;-60
2023/11/01 05:25:34;;;;;;;34.30;24.80;;;;;;;24.16;60.44;100887.29;110755;1253;23187;-59
2023/11/01 05:28:01;;;;;;;40.00;25.00;;;;;;;24.18;60.53;100885.18;110816;1256;22310;-66
2023/11/01 05:30:28;;;;;;;40.10;26.50;;;;;;;24.19;60.50;100879.60;110789;1253;22460;-60
2023/11/01 05:32:55;;;;;;;37.20;25.00;;;;;;;24.20;60.37;100882.31;110809;1253;22465;-65
2023/11/01 05:35:22;;;;;;;35.70;24.70;;;;;;;24.22;60.45;100875.11;110745;1256;22299;-62
2023/11/01 05:37:48;;;;;;;35.10;24.40;;;;;;;24.23;60.37;100874.14;110464;1259;22125;-59
2023/11/01 05:40:16;;;;;;;36.10;24.80;;;;;;;24.24;60.40;100873.18;110694;1256;22315;-62
2023/11/01 05:42:44;;;;;;;41.00;25.10;;;;;;;24.24;60.43;100875.98;110757;1254;23238;-60
2023/11/01 05:45:15;;;;;;;38.00;23.60;;;;;;;24.25;60.42;100873.77;110746;1272;22131;-61
2023/11/01 05:47:49;;;;;;;40.20;25.40;;;;;;;24.27;60.44;100877.80;110712;1256;22431;-63
2023/11/01 05:50:23;;;;;;;34.50;24.70;;;;;;;24.28;60.45;100877.52;110759;1253;22396;-66
2023/11/01 05:52:53;;;;;;;45.00;25.90;;;;;;;24.29;60.37;100874.96;110782;1256;22370;-68
2023/11/01 05:55:19;;;;;;;39.60;26.10;;;;;;;24.31;60.31;100870.77;110772;1253;23056;-66
2023/11/01 05:57:59;;;;;;;37.60;25.10;;;;;;;24.33;60.51;100868.50;110804;1254;23119;-59
2023/11/01 06:00:26;;;;;;;39.60;25.80;;;;;;;24.35;60.46;100865.84;110577;1266;22353;-60
2023/11/01 06:02:53;;;;;;;38.50;24.80;;;;;;;24.37;60.43;100878.25;110775;1253;22437;-59
2023/11/01 06:05:22;;;;;;;37.80;25.90;;;;;;;24.39;60.34;100878.83;110768;1254;22319;-60
2023/11/01 06:07:48;;;;;;;38.80;24.90;;;;;;;24.40;60.39;100881.92;110728;1254;22343;-59
2023/11/01 06:10:15;;;;;;;37.00;24.00;;;;;;;24.42;60.25;100884.20;110741;1254;22310;-60
2023/11/01 06:12:42;;;;;;;37.50;24.40;;;;;;;24.44;60.34;100876.45;110709;1262;22200;-62
2023/11/01 06:15:10;;;;;;;36.80;25.20;;;;;;;24.47;60.32;100867.35;110764;1256;22291;-59
2023/11/01 06:17:37;;;;;;;36.90;25.70;;;;;;;24.49;60.40;100859.91;110786;1256;23079;-65
2023/11/01 06:20:08;;;;;;;36.40;25.10;;;;;;;24.52;60.36;100871.95;110804;1256;23064;-59
2023/11/01 06:22:35;;;;;;;37.80;24.80;;;;;;;24.54;60.08;100873.03;110730;1253;22647;-59
2023/11/01 06:25:02;;;;;;;33.80;24.70;;;;;;;24.55;59.93;100870.46;110749;1262;22230;-63
2023/11/01 06:27:29;;;;;;;38.60;24.40;;;;;;;24.58;59.96;100858.71;110745;1262;22880;-62
2023/11/01 06:29:57;;;;;;;40.40;25.40;;;;;;;24.61;60.01;100847.61;110785;1253;22296;-62
2023/11/01 06:32:24;;;;;;;35.60;25.10;;;;;;;24.65;60.00;100852.27;110777;1254;22172;-60
2023/11/01 06:34:50;;;;;;;46.20;25.80;;;;;;;24.67;60.15;100848.36;110799;1254;22202;-59
2023/11/01 06:37:17;;;;;;;38.20;25.70;;;;;;;24.69;60.11;100850.48;110752;1262;22306;-62
2023/11/01 06:39:44;;;;;;;38.00;24.80;;;;;;;24.72;59.87;100840.34;110735;1253;23107;-60
2023/11/01 06:42:11;;;;;;;49.80;26.90;;;;;;;24.74;59.91;100825.52;110735;1262;22395;-59
2023/11/01 06:44:37;;;;;;;39.30;25.50;;;;;;;24.76;59.86;100822.69;110718;1253;22304;-60
2023/11/01 06:47:04;;;;;;;31.30;25.20;;;;;;;24.78;59.95;100829.27;110808;1253;22362;-60
2023/11/01 06:49:34;;;;;;;39.20;25.50;;;;;;;24.79;59.76;100830.73;110499;1265;22139;-61
2023/11/01 06:52:00;;;;;;;36.20;24.20;;;;;;;24.82;59.84;100828.24;110739;1256;22421;-59
2023/11/01 06:54:28;;;;;;;39.10;25.70;;;;;;;24.84;59.81;100834.04;110464;1257;22399;-59
2023/11/01 06:56:54;;;;;;;41.20;25.30;;;;;;;24.86;59.71;100831.96;110734;1254;22508;-65
2023/11/01 06:59:21;;;;;;;42.80;26.60;;;;;;;24.89;59.80;100833.90;110728;1255;22222;-62
2023/11/01 07:01:48;;;;;;;40.90;25.70;;;;;;;24.91;59.76;100833.17;110477;1256;23221;-59
2023/11/01 07:04:15;;;;;;;39.50;25.90;;;;;;;24.93;59.49;100828.36;110579;1259;23332;-58
2023/11/01 07:06:45;;;;;;;36.20;25.50;;;;;;;24.97;59.59;100827.20;110728;1266;22391;-59
2023/11/01 07:09:12;;;;;;;40.20;25.40;;;;;;;24.99;59.56;100824.85;110723;1269;22421;-61
2023/11/01 07:11:38;;;;;;;41.30;24.80;;;;;;;25.02;59.37;100835.60;110242;1273;22126;-68
2023/11/01 07:14:05;;;;;;;36.90;26.30;;;;;;;25.04;59.31;100850.21;110767;1254;22358;-59
2023/11/01 07:16:34;;;;;;;39.90;25.30;;;;;;;25.04;59.17;100852.29;110806;1254;22902;-63
2023/11/01 07:19:01;;;;;;;38.70;25.70;;;;;;;25.05;59.01;100839.13;110767;1269;23215;-62
2023/11/01 07:21:28;;;;;;;37.20;24.50;;;;;;;25.06;58.99;100825.54;110742;1269;22408;-64
2023/11/01 07:23:54;;;;;;;35.30;24.30;;;;;;;25.07;58.99;100827.23;110802;1253;23162;-60
2023/11/01 07:26:21;;;;;;;38.10;26.00;;;;;;;25.08;59.05;100828.02;110371;1258;22113;-65
2023/11/01 07:28:49;;;;;;;39.50;23.90;;;;;;;25.10;59.01;100824.33;110754;1253;22862;-62
2023/11/01 07:31:16;;;;;;;34.90;24.60;;;;;;;25.12;58.92;100825.73;110724;1253;22375;-59
2023/11/01 07:33:43;;;;;;;49.50;25.60;;;;;;;25.15;58.69;100828.05;110734;1262;22369;-60
2023/11/01 07:36:10;;;;;;;47.90;25.20;;;;;;;25.16;58.56;100830.81;110725;1266;23200;-63
2023/11/01 07:38:37;;;;;;;38.50;24.20;;;;;;;25.18;58.26;100831.14;110527;1258;22349;-59
2023/11/01 07:41:07;;;;;;;37.70;25.20;;;;;;;25.21;58.11;100842.81;110018;1253;1002363;-58
2023/11/01 07:43:34;;;;;;;36.10;25.00;;;;;;;25.23;58.02;100860.52;110715;1272;22437;-59
2023/11/01 07:46:01;;;;;;;28.10;22.80;;;;;;;25.25;57.74;100852.89;110761;1269;22177;-60
2023/11/01 07:48:28;;;;;;;34.90;24.80;;;;;;;25.29;57.23;100848.30;110858;1266;22121;-61
2023/11/01 07:50:55;;;;;;;30.40;23.50;;;;;;;25.32;56.97;100846.50;110723;1272;22517;-59
2023/11/01 07:53:22;;;;;;;32.20;23.30;;;;;;;25.34;56.78;100848.45;110747;1268;22915;-61
2023/11/01 07:55:49;;;;;;;31.70;24.10;;;;;;;25.37;56.43;100844.79;110794;1265;22462;-59
2023/11/01 07:58:19;;;;;;;30.30;23.30;;;;;;;25.41;56.13;100850.91;110730;1256;23215;-60
2023/11/01 08:00:46;;;;;;;28.70;22.70;;;;;;;25.44;55.77;100868.40;110773;1254;23109;-63
2023/11/01 08:03:13;;;;;;;30.90;23.10;;;;;;;25.48;55.75;100873.26;110381;1258;22421;-58
2023/11/01 08:05:41;;;;;;;31.40;22.90;;;;;;;25.52;55.38;100862.99;110608;1272;23094;-58
2023/11/01 08:08:08;;;;;;;31.80;21.20;;;;;;;25.53;54.81;100863.72;110369;1259;22340;-58
2023/11/01 08:10:35;;;;;;;28.40;22.80;;;;;;;25.57;54.40;100855.31;110768;1267;22247;-64
2023/11/01 08:13:02;;;;;;;30.40;22.60;;;;;;;25.60;53.94;100842.02;110747;1266;23271;-61
2023/11/01 08:15:33;;;;;;;25.60;20.40;;;;;;;25.64;53.66;100833.52;110713;1265;22268;-61
2023/11/01 08:18:02;;;;;;;27.70;22.40;;;;;;;25.65;53.50;100840.89;110486;1272;22500;-60
2023/11/01 08:20:30;;;;;;;28.10;22.40;;;;;;;25.65;53.23;100850.49;110764;1257;22203;-60
2023/11/01 08:22:57;;;;;;;30.20;22.70;;;;;;;25.66;53.29;100863.54;110721;1272;23237;-61
2023/11/01 08:25:24;;;;;;;27.70;21.80;;;;;;;25.68;53.14;100873.73;110712;1269;22281;-59
2023/11/01 08:27:51;;;;;;;27.50;23.30;;;;;;;25.69;53.02;100885.70;110711;1266;22447;-59
2023/11/01 08:30:18;;;;;;;30.40;22.90;;;;;;;25.69;52.75;100887.13;110721;1266;22446;-59
2023/11/01 08:32:45;;;;;;;29.30;22.10;;;;;;;25.68;52.44;100893.21;110730;1273;22387;-59
2023/11/01 08:35:12;;;;;;;27.70;22.90;;;;;;;25.66;52.18;100892.90;110379;1269;22197;-60
2023/11/01 08:37:41;;;;;;;30.90;22.90;;;;;;;25.60;52.20;100887.32;110778;1265;22388;-63
2023/11/01 08:40:08;;;;;;;29.70;23.40;;;;;;;25.56;52.31;100898.13;110709;1269;22433;-59
2023/11/01 08:42:35;;;;;;;30.50;24.00;;;;;;;25.51;52.33;100906.02;110561;1272;22403;-58
2023/11/01 08:45:02;;;;;;;31.20;23.30;;;;;;;25.47;52.52;100907.21;110422;1260;22200;-58
2023/11/01 08:47:44;;;;;;;27.00;23.30;;;;;;;25.47;52.62;100908.49;110503;1273;22877;-59
2023/11/01 08:50:12;;;;;;;26.90;22.90;;;;;;;25.47;52.48;100917.05;110753;1272;22373;-59
2023/11/01 08:52:40;;;;;;;28.70;22.30;;;;;;;25.46;52.43;100924.05;109801;1273;1002207;-63
2023/11/01 08:55:08;;;;;;;29.00;22.80;;;;;;;25.45;52.29;100922.31;110528;1267;22307;-60
2023/11/01 08:57:34;;;;;;;28.20;22.80;;;;;;;25.45;52.22;100928.36;110743;1253;22391;-58
2023/11/01 09:00:04;;;;;;;24.90;21.60;;;;;;;25.47;52.22;100933.94;110511;1265;22281;-61
2023/11/01 09:02:32;;;;;;;25.30;20.80;;;;;;;25.47;51.86;100941.48;110787;1262;22122;-61
2023/11/01 09:04:59;;;;;;;23.90;19.60;;;;;;;25.43;51.42;100938.66;110364;1272;22403;-58
2023/11/01 09:07:26;;;;;;;26.50;20.40;;;;;;;25.36;51.36;100940.80;110790;1255;22299;-58
2023/11/01 09:09:53;;;;;;;25.50;19.20;;;;;;;25.29;51.11;100937.32;110790;1251;22287;-58
2023/11/01 09:12:20;;;;;;;24.50;18.00;;;;;;;25.22;51.05;100928.47;110779;1257;22359;-64
2023/11/01 09:15:04;;;;;;;22.90;19.60;;;;;;;25.15;51.00;100925.48;110108;1263;1002206;-58
2023/11/01 09:17:31;;;;;;;22.50;18.70;;;;;;;25.10;51.27;100926.27;110722;1266;22337;-58
2023/11/01 09:19:58;;;;;;;25.50;18.40;;;;;;;25.02;51.47;100917.09;110467;1273;22529;-59
2023/11/01 09:22:25;;;;;;;25.50;18.60;;;;;;;24.91;51.83;100908.95;110748;1272;22907;-64
2023/11/01 09:24:52;;;;;;;19.50;17.10;;;;;;;24.80;52.16;100895.60;110734;1273;22178;-62
2023/11/01 09:27:19;;;;;;;22.10;18.80;;;;;;;24.67;52.33;100890.23;110738;1273;23002;-60
2023/11/01 09:29:46;;;;;;;23.30;18.50;;;;;;;24.49;52.50;100882.61;110728;1273;22872;-60
2023/11/01 09:32:12;;;;;;;24.40;17.60;;;;;;;24.25;52.99;100879.52;110490;1273;22128;-60
2023/11/01 09:34:41;;;;;;;19.40;16.10;;;;;;;24.02;53.45;100876.48;110804;1266;22338;-59
2023/11/01 09:37:07;;;;;;;20.80;16.70;;;;;;;23.82;53.73;100862.21;110617;1269;22440;-61
2023/11/01 09:39:35;;;;;;;20.50;16.10;;;;;;;23.63;54.41;100860.10;110797;1253;22177;-59
2023/11/01 09:42:14;;;;;;;13.50;11.90;;;;;;;23.48;54.74;100856.96;110464;1272;22334;-60
2023/11/01 09:44:41;;;;;;;12.00;9.40;;;;;;;23.33;54.04;100860.04;110641;1267;22966;-60
2023/11/01 09:47:08;;;;;;;14.50;9.10;;;;;;;23.18;53.84;100861.83;110547;1273;22233;-59
2023/11/01 09:49:35;;;;;;;9.10;7.50;;;;;;;23.03;53.51;100866.13;110748;1269;22419;-58
2023/11/01 09:52:02;;;;;;;9.90;6.60;;;;;;;22.86;53.16;100865.19;110466;1273;22661;-60
2023/11/01 09:54:29;;;;;;;9.70;7.30;;;;;;;22.73;53.15;100877.84;110386;1270;22322;-64
2023/11/01 09:56:56;;;;;;;11.90;6.60;;;;;;;22.60;53.33;100874.30;110725;1267;22395;-59
2023/11/01 09:59:24;;;;;;;13.10;7.40;;;;;;;22.49;53.82;100864.23;110495;1266;22437;-58
2023/11/01 10:01:51;;;;;;;9.50;8.00;;;;;;;22.41;54.38;100863.72;110526;1273;22265;-59
2023/11/01 10:04:19;;;;;;;12.60;8.60;;;;;;;22.35;54.96;100875.13;110504;1274;22130;-59
2023/11/01 10:06:46;;;;;;;13.10;8.70;;;;;;;22.29;55.57;100883.11;110740;1266;22322;-59
2023/11/01 10:09:13;;;;;;;10.00;7.00;;;;;;;22.23;55.82;100893.82;110788;1266;22126;-66
2023/11/01 10:11:41;;;;;;;8.60;6.70;;;;;;;22.13;55.10;100929.49;110410;1270;23081;-60
2023/11/01 10:14:08;;;;;;;7.90;6.10;;;;;;;22.03;55.09;100934.77;110373;1273;22952;-58
2023/11/01 10:16:37;;;;;;;8.50;5.50;;;;;;;21.93;55.15;100955.73;110727;1273;22119;-59
2023/11/01 10:19:04;;;;;;;5.90;4.60;;;;;;;21.84;54.93;100970.28;110729;1272;22601;-58
2023/11/01 10:21:31;;;;;;;5.50;4.50;;;;;;;21.75;54.76;100981.41;110749;1272;22198;-59
2023/11/01 10:23:58;;;;;;;5.50;4.30;;;;;;;21.67;54.47;100982.81;110731;1273;23146;-61
2023/11/01 10:26:29;;;;;;;5.50;3.80;;;;;;;21.62;54.42;100967.27;110361;1270;22290;-58
2023/11/01 10:28:59;;;;;;;3.90;3.40;;;;;;;21.53;53.94;100952.52;110732;1272;22163;-58
2023/11/01 10:31:26;;;;;;;5.80;3.80;;;;;;;21.41;53.91;100947.96;109842;1267;1002668;-59
2023/11/01 10:33:53;;;;;;;3.90;3.20;;;;;;;21.32;54.16;100960.23;110748;1267;22623;-59
2023/11/01 10:36:20;;;;;;;4.30;3.30;;;;;;;21.25;54.48;100979.89;110739;1267;22372;-59
2023/11/01 10:38:51;;;;;;;6.90;3.50;;;;;;;21.21;54.73;101003.27;110785;1266;22441;-62
2023/11/01 10:41:20;;;;;;;4.40;3.40;;;;;;;21.22;54.99;101015.56;110726;1272;23067;-59
2023/11/01 10:43:46;;;;;;;4.60;3.90;;;;;;;21.25;54.84;101006.34;110546;1267;22411;-61
2023/11/01 10:46:14;;;;;;;5.50;3.90;;;;;;;21.27;54.83;100998.11;110712;1267;22386;-58
2023/11/01 10:48:41;;;;;;;3.90;3.50;;;;;;;21.26;54.71;100998.70;110614;1267;22178;-59
2023/11/01 10:51:08;;;;;;;7.10;3.60;;;;;;;21.25;54.94;100999.33;110525;1273;22313;-59
2023/11/01 10:53:37;;;;;;;3.90;3.30;;;;;;;21.24;55.16;100990.91;110611;1268;22348;-60
2023/11/01 10:56:04;;;;;;;4.90;3.50;;;;;;;21.23;55.25;100980.70;110464;1269;22148;-65
2023/11/01 10:58:33;;;;;;;6.00;3.40;;;;;;;21.17;55.25;100981.99;110709;1267;22397;-60
2023/11/01 11:01:35;;;;;;;6.00;3.50;;;;;;;21.09;55.55;100970.98;110536;1260;23230;-59
2023/11/01 11:04:10;;;;;;;3.50;2.70;;;;;;;20.98;55.62;100980.80;110143;1270;22156;-60